Time;durP1;ratioP1;P1;durP2;ratioP2;P2;SDS_P1;SDS_P2;PMS_P1;PMS_P2;Temp;Humidity;BMP_temperature;BMP_pressure;BME280_temperature;BME280_humidity;BME280_pressure;Samples;Min_cycle;Max_cycle;Signal;HPM_P1;HPM_P2
2021/01/14 00:00:58;;;;;;;4.87;4.57;;;6.00;99.90;;;;;;5028875;28;20469;-89
2021/01/14 00:03:26;;;;;;;5.37;4.97;;;6.00;99.90;;;;;;5031433;28;20464;-90
2021/01/14 00:05:52;;;;;;;4.93;4.50;;;6.00;99.90;;;;;;5030501;28;20475;-90
2021/01/14 00:08:19;;;;;;;5.90;5.33;;;5.90;99.90;;;;;;5031410;28;20942;-90
2021/01/14 00:10:45;;;;;;;4.40;4.10;;;5.90;99.90;;;;;;5031062;28;20441;-90
2021/01/14 00:13:12;;;;;;;4.90;4.40;;;5.90;99.90;;;;;;5030997;28;20468;-89
2021/01/14 00:15:42;;;;;;;4.80;4.40;;;5.90;99.90;;;;;;5028856;28;20475;-89
2021/01/14 00:18:09;;;;;;;4.50;4.20;;;5.90;99.90;;;;;;5031472;28;20445;-90
2021/01/14 00:20:35;;;;;;;4.57;4.23;;;5.90;99.90;;;;;;5028153;28;20560;-89
2021/01/14 00:23:01;;;;;;;4.20;3.77;;;5.90;99.90;;;;;;5029288;28;21052;-89
2021/01/14 00:25:27;;;;;;;4.13;3.83;;;5.90;99.90;;;;;;5030658;28;20452;-90
2021/01/14 00:27:54;;;;;;;4.27;3.87;;;5.90;99.90;;;;;;5031510;28;20807;-89
2021/01/14 00:30:27;;;;;;;4.27;3.90;;;5.80;99.90;;;;;;5031351;28;20576;-89
2021/01/14 00:32:53;;;;;;;3.63;3.33;;;5.80;99.90;;;;;;5030046;28;20437;-90
2021/01/14 00:35:20;;;;;;;4.70;4.30;;;5.80;99.90;;;;;;5031197;28;20449;-89
2021/01/14 00:37:52;;;;;;;3.97;3.67;;;5.80;99.90;;;;;;5031469;28;20468;-90
2021/01/14 00:40:21;;;;;;;4.27;3.87;;;5.80;99.90;;;;;;5032471;28;20485;-90
2021/01/14 00:42:54;;;;;;;4.33;3.93;;;5.80;99.90;;;;;;5035179;28;20488;-90
2021/01/14 00:45:20;;;;;;;4.40;4.00;;;5.80;99.90;;;;;;5040610;28;20489;-89
2021/01/14 00:47:47;;;;;;;4.50;4.10;;;5.70;99.90;;;;;;5031980;28;20523;-90
2021/01/14 00:50:13;;;;;;;5.30;4.90;;;5.70;99.90;;;;;;5032263;28;20438;-90
2021/01/14 00:52:41;;;;;;;4.50;4.03;;;5.80;99.90;;;;;;5031393;28;20437;-90
2021/01/14 00:55:08;;;;;;;4.13;3.73;;;5.80;99.90;;;;;;5029958;28;21005;-90
2021/01/14 00:57:35;;;;;;;5.13;4.60;;;5.70;99.90;;;;;;5031062;28;20445;-90
2021/01/14 01:00:01;;;;;;;4.63;4.00;;;5.80;99.90;;;;;;5030661;28;20528;-91
2021/01/14 01:02:27;;;;;;;4.20;3.67;;;5.80;99.90;;;;;;5030080;28;20481;-89
2021/01/14 01:04:53;;;;;;;5.70;4.40;;;5.80;99.90;;;;;;5030181;28;20453;-90
2021/01/14 01:07:19;;;;;;;4.03;3.73;;;5.80;99.90;;;;;;5030059;28;20449;-89
2021/01/14 01:09:46;;;;;;;4.30;3.83;;;5.80;99.90;;;;;;5030542;28;20432;-89
2021/01/14 01:12:13;;;;;;;5.20;4.70;;;5.70;99.90;;;;;;5029668;28;20500;-90
2021/01/14 01:14:39;;;;;;;4.13;3.80;;;5.70;99.90;;;;;;5030171;28;20465;-89
2021/01/14 01:17:05;;;;;;;4.13;3.70;;;5.60;99.90;;;;;;5026296;28;20854;-90
2021/01/14 01:19:31;;;;;;;4.70;4.30;;;5.70;99.90;;;;;;5029487;28;20452;-89
2021/01/14 01:21:57;;;;;;;4.90;4.50;;;5.70;99.90;;;;;;5029358;28;20489;-89
2021/01/14 01:24:23;;;;;;;5.00;4.60;;;5.70;99.90;;;;;;5027833;28;20472;-90
2021/01/14 01:26:53;;;;;;;4.40;4.03;;;5.70;99.90;;;;;;5030193;28;20472;-87
2021/01/14 01:29:20;;;;;;;4.40;4.00;;;5.70;99.90;;;;;;5028791;28;20441;-89
2021/01/14 01:31:46;;;;;;;4.83;4.43;;;5.70;99.90;;;;;;5030172;28;20994;-89
2021/01/14 01:34:13;;;;;;;4.10;3.80;;;5.70;99.90;;;;;;5033467;28;20997;-89
2021/01/14 01:36:39;;;;;;;4.93;4.50;;;5.60;99.90;;;;;;5033737;28;20467;-88
2021/01/14 01:39:05;;;;;;;5.43;4.60;;;5.60;99.90;;;;;;5033625;28;20457;-89
2021/01/14 01:41:32;;;;;;;4.87;4.47;;;5.60;99.90;;;;;;5034044;28;20504;-88
2021/01/14 01:43:59;;;;;;;4.60;3.60;;;5.60;99.90;;;;;;5033083;28;20469;-90
2021/01/14 01:46:28;;;;;;;4.07;3.77;;;5.70;99.90;;;;;;5033669;28;20444;-89
2021/01/14 01:48:56;;;;;;;5.10;4.60;;;5.70;99.90;;;;;;5033440;28;20821;-89
2021/01/14 01:51:25;;;;;;;4.20;3.90;;;5.60;99.90;;;;;;5033834;28;20465;-90
2021/01/14 01:53:52;;;;;;;4.93;4.43;;;5.60;99.90;;;;;;5032978;28;20457;-90
2021/01/14 01:56:18;;;;;;;4.40;4.00;;;5.60;99.90;;;;;;5031759;28;20441;-90
2021/01/14 01:58:45;;;;;;;7.40;3.97;;;5.60;99.90;;;;;;5031584;28;20472;-90
2021/01/14 02:01:12;;;;;;;3.93;3.60;;;5.50;99.90;;;;;;5033623;28;20480;-90
2021/01/14 02:03:39;;;;;;;5.40;4.27;;;5.60;99.90;;;;;;5032833;28;20548;-88
2021/01/14 02:06:05;;;;;;;4.37;3.97;;;5.60;99.90;;;;;;5033347;28;20529;-89
2021/01/14 02:08:38;;;;;;;4.27;3.93;;;5.60;99.90;;;;;;5030917;28;20441;-89
2021/01/14 02:11:09;;;;;;;4.57;4.17;;;5.50;99.90;;;;;;5031894;28;20528;-89
2021/01/14 02:13:46;;;;;;;5.53;4.20;;;5.60;99.90;;;;;;5031496;28;20492;-91
2021/01/14 02:16:14;;;;;;;4.90;4.20;;;5.50;99.90;;;;;;5032493;28;20475;-90
2021/01/14 02:18:41;;;;;;;4.87;4.10;;;5.50;99.90;;;;;;5032667;28;20507;-90
2021/01/14 02:21:10;;;;;;;4.93;3.63;;;5.50;99.90;;;;;;5031638;28;20453;-89
2021/01/14 02:23:45;;;;;;;4.20;3.90;;;5.50;99.90;;;;;;5033171;28;20821;-89
2021/01/14 02:26:17;;;;;;;3.77;3.47;;;5.50;99.90;;;;;;5031500;28;20803;-90
2021/01/14 02:28:45;;;;;;;3.23;2.93;;;5.50;99.90;;;;;;5033100;28;20438;-90
2021/01/14 02:31:12;;;;;;;3.40;3.10;;;5.40;99.90;;;;;;5032522;28;20448;-90
2021/01/14 02:33:38;;;;;;;4.50;2.90;;;5.40;99.90;;;;;;5032807;28;20996;-89
2021/01/14 02:36:05;;;;;;;3.60;3.30;;;5.40;99.90;;;;;;5031322;28;20977;-88
2021/01/14 02:38:32;;;;;;;3.90;2.83;;;5.40;99.90;;;;;;5031091;28;20434;-88
2021/01/14 02:40:58;;;;;;;3.20;2.90;;;5.30;99.90;;;;;;5032367;28;20455;-89
2021/01/14 02:43:25;;;;;;;3.40;3.00;;;5.20;99.90;;;;;;5031238;28;20858;-89
2021/01/14 02:45:52;;;;;;;2.83;2.60;;;5.20;99.90;;;;;;5032330;28;20437;-89
2021/01/14 02:48:23;;;;;;;3.70;3.23;;;5.30;99.90;;;;;;5030569;28;20445;-90
2021/01/14 02:50:54;;;;;;;3.63;3.30;;;5.20;99.90;;;;;;5031558;28;20438;-89
2021/01/14 02:53:22;;;;;;;3.03;2.73;;;5.20;99.90;;;;;;5030398;28;21004;-90
2021/01/14 02:55:50;;;;;;;3.43;3.13;;;5.10;99.90;;;;;;5032933;28;20520;-90
2021/01/14 02:58:16;;;;;;;5.00;3.73;;;5.20;99.90;;;;;;5034182;28;20953;-89
2021/01/14 03:00:43;;;;;;;3.27;2.73;;;5.20;99.90;;;;;;5032573;28;20936;-89
2021/01/14 03:03:09;;;;;;;4.07;3.30;;;5.20;99.90;;;;;;5032332;28;20546;-89
2021/01/14 03:05:36;;;;;;;4.60;2.90;;;5.10;99.90;;;;;;5032097;28;20433;-89
2021/01/14 03:08:02;;;;;;;3.00;2.70;;;5.10;99.90;;;;;;5029753;28;20448;-90
2021/01/14 03:10:28;;;;;;;3.87;3.57;;;5.10;99.90;;;;;;5032502;28;20440;-89
2021/01/14 03:12:56;;;;;;;3.47;3.17;;;5.00;99.90;;;;;;5031488;28;20450;-90
2021/01/14 03:15:22;;;;;;;3.50;3.20;;;5.00;99.90;;;;;;5032250;28;20771;-89
2021/01/14 03:17:50;;;;;;;3.40;2.40;;;5.10;99.90;;;;;;5030594;28;20496;-89
2021/01/14 03:20:16;;;;;;;5.67;3.20;;;5.10;99.90;;;;;;5032349;28;20460;-88
2021/01/14 03:22:42;;;;;;;3.67;3.37;;;5.10;99.90;;;;;;5030398;28;21013;-89
2021/01/14 03:25:11;;;;;;;3.50;3.20;;;5.00;99.90;;;;;;5030545;28;20543;-89
2021/01/14 03:27:38;;;;;;;5.40;4.90;;;5.00;99.90;;;;;;5032076;28;20442;-89
2021/01/14 03:30:07;;;;;;;4.30;3.37;;;5.00;99.90;;;;;;5030143;28;20457;-89
2021/01/14 03:32:33;;;;;;;4.50;3.23;;;5.00;99.90;;;;;;5029670;28;20449;-90
2021/01/14 03:35:00;;;;;;;4.40;4.00;;;4.90;99.90;;;;;;5030872;28;20517;-90
2021/01/14 03:37:26;;;;;;;4.40;3.87;;;4.90;99.90;;;;;;5031931;28;20437;-89
2021/01/14 03:39:53;;;;;;;6.40;3.57;;;4.80;99.90;;;;;;5030221;28;20453;-90
2021/01/14 03:42:20;;;;;;;6.40;3.27;;;4.70;99.90;;;;;;5031989;28;20473;-90
2021/01/14 03:44:46;;;;;;;3.67;3.37;;;4.70;99.90;;;;;;5030679;28;20555;-90
2021/01/14 03:47:13;;;;;;;4.37;3.70;;;4.70;99.90;;;;;;5031731;28;20457;-89
2021/01/14 03:49:39;;;;;;;3.77;3.30;;;4.60;99.90;;;;;;5030895;28;20464;-89
2021/01/14 03:52:09;;;;;;;4.60;3.37;;;4.60;99.90;;;;;;5031791;28;20448;-89
2021/01/14 03:54:35;;;;;;;5.63;4.03;;;4.50;99.90;;;;;;5029319;28;20908;-89
2021/01/14 03:57:01;;;;;;;3.30;2.90;;;4.50;99.90;;;;;;5029412;28;20464;-89
2021/01/14 03:59:28;;;;;;;5.93;3.70;;;4.50;99.90;;;;;;5030303;28;20446;-89
2021/01/14 04:01:59;;;;;;;4.17;3.50;;;4.40;99.90;;;;;;5031245;28;20472;-89
2021/01/14 04:04:25;;;;;;;3.80;3.40;;;4.40;99.90;;;;;;5030531;28;20501;-89
2021/01/14 04:06:51;;;;;;;3.70;3.00;;;4.40;99.90;;;;;;5031151;28;20496;-89
2021/01/14 04:09:19;;;;;;;3.70;3.23;;;4.40;99.90;;;;;;5029043;28;20448;-90
2021/01/14 04:11:45;;;;;;;6.80;4.67;;;4.40;99.90;;;;;;5029444;28;20452;-89
2021/01/14 04:14:12;;;;;;;4.30;3.70;;;4.30;99.90;;;;;;5030875;28;20472;-89
2021/01/14 04:16:38;;;;;;;5.60;4.20;;;4.30;99.90;;;;;;5031026;28;20440;-89
2021/01/14 04:19:04;;;;;;;4.17;3.77;;;4.30;99.90;;;;;;5031238;28;20545;-88
2021/01/14 04:21:30;;;;;;;5.40;3.67;;;4.20;99.90;;;;;;5031411;28;20471;-89
2021/01/14 04:23:56;;;;;;;5.90;3.87;;;4.20;99.90;;;;;;5028568;28;20524;-90
2021/01/14 04:26:23;;;;;;;5.53;4.53;;;4.20;99.90;;;;;;5029210;28;20453;-90
2021/01/14 04:28:49;;;;;;;4.63;3.70;;;4.20;99.90;;;;;;5030387;28;20448;-88
2021/01/14 04:31:16;;;;;;;5.90;4.40;;;4.10;99.90;;;;;;5031244;28;20445;-89
2021/01/14 04:33:42;;;;;;;5.07;4.07;;;4.20;99.90;;;;;;5030648;28;20502;-89
2021/01/14 04:36:08;;;;;;;5.87;4.23;;;4.20;99.90;;;;;;5030829;28;20507;-89
2021/01/14 04:38:34;;;;;;;7.47;4.50;;;4.20;99.90;;;;;;5030927;28;20445;-89
2021/01/14 04:41:02;;;;;;;5.07;4.27;;;4.20;99.90;;;;;;5030929;28;20499;-89
2021/01/14 04:43:31;;;;;;;6.10;4.23;;;4.10;99.90;;;;;;5031220;28;20459;-89
2021/01/14 04:46:04;;;;;;;6.93;4.83;;;4.00;99.90;;;;;;5030003;28;20456;-89
2021/01/14 04:48:31;;;;;;;5.57;4.70;;;4.00;99.90;;;;;;5030887;28;20445;-88
2021/01/14 04:51:05;;;;;;;4.77;3.90;;;4.00;99.90;;;;;;5030224;28;20439;-89
2021/01/14 04:53:33;;;;;;;5.90;4.23;;;4.00;99.90;;;;;;5030858;28;20465;-88
2021/01/14 04:56:02;;;;;;;6.77;5.40;;;4.10;99.90;;;;;;5029752;28;20519;-88
2021/01/14 04:58:29;;;;;;;6.40;4.50;;;4.10;99.90;;;;;;5030803;28;20433;-87
2021/01/14 05:00:58;;;;;;;6.63;4.70;;;4.10;99.90;;;;;;5030533;28;20441;-88
2021/01/14 05:03:26;;;;;;;7.17;4.70;;;4.10;99.90;;;;;;5031553;28;21182;-88
2021/01/14 05:05:53;;;;;;;6.33;4.63;;;4.10;99.90;;;;;;5031826;28;20883;-88
2021/01/14 05:08:26;;;;;;;6.27;5.43;;;4.00;99.90;;;;;;5036847;28;20491;-89
2021/01/14 05:10:53;;;;;;;10.90;4.70;;;4.00;99.90;;;;;;5032642;28;20494;-89
2021/01/14 05:13:19;;;;;;;6.00;5.37;;;3.90;99.90;;;;;;5034506;28;20567;-89
2021/01/14 05:15:47;;;;;;;7.10;5.27;;;3.90;99.90;;;;;;5033617;28;20984;-89
2021/01/14 05:18:13;;;;;;;5.83;5.13;;;3.90;99.90;;;;;;5031740;28;20453;-89
2021/01/14 05:20:39;;;;;;;6.87;5.30;;;3.90;99.90;;;;;;5033985;28;20452;-89
2021/01/14 05:23:06;;;;;;;6.27;4.90;;;3.80;99.90;;;;;;5034605;28;20477;-88
2021/01/14 05:25:33;;;;;;;8.37;6.03;;;3.80;99.90;;;;;;5033329;28;20479;-89
2021/01/14 05:28:10;;;;;;;6.70;5.53;;;3.70;99.90;;;;;;5031768;28;20453;-89
2021/01/14 05:30:37;;;;;;;6.80;4.67;;;3.70;99.90;;;;;;5032110;28;20449;-89
2021/01/14 05:33:04;;;;;;;6.40;5.70;;;3.70;99.90;;;;;;5034542;28;20459;-87
2021/01/14 05:35:31;;;;;;;10.63;5.50;;;3.70;99.90;;;;;;5033786;28;20501;-89
2021/01/14 05:38:03;;;;;;;10.03;5.23;;;3.70;99.90;;;;;;5033534;28;20448;-89
2021/01/14 05:40:30;;;;;;;11.47;6.43;;;3.70;99.90;;;;;;5019070;28;20541;-89
2021/01/14 05:43:05;;;;;;;7.50;5.20;;;3.70;99.90;;;;;;5014567;28;20485;-89
2021/01/14 05:45:32;;;;;;;8.00;6.00;;;3.70;99.90;;;;;;5029281;28;20456;-89
2021/01/14 05:48:09;;;;;;;7.80;5.33;;;3.70;99.90;;;;;;5034414;28;20799;-89
2021/01/14 05:50:43;;;;;;;11.00;6.80;;;3.70;99.90;;;;;;5019705;28;20958;-89
2021/01/14 05:53:14;;;;;;;6.43;5.80;;;3.80;99.90;;;;;;5014703;28;20459;-89
2021/01/14 05:55:43;;;;;;;6.03;5.43;;;3.70;99.90;;;;;;5029188;28;20443;-90
2021/01/14 05:58:16;;;;;;;8.03;6.20;;;3.70;99.90;;;;;;5034354;28;20952;-90
2021/01/14 06:00:44;;;;;;;11.00;6.10;;;3.70;99.90;;;;;;5019133;28;20798;-89
2021/01/14 06:03:25;;;;;;;11.10;6.70;;;3.80;99.90;;;;;;5014720;28;20531;-89
2021/01/14 06:05:51;;;;;;;8.17;6.67;;;3.70;99.90;;;;;;5015068;28;20454;-90
2021/01/14 06:08:25;;;;;;;12.40;6.37;;;3.70;99.90;;;;;;5014413;28;20455;-89
2021/01/14 06:10:52;;;;;;;9.00;6.50;;;3.60;99.90;;;;;;5029173;28;20466;-89
2021/01/14 06:13:18;;;;;;;10.50;7.27;;;3.60;99.90;;;;;;5034118;28;21062;-89
2021/01/14 06:15:44;;;;;;;8.80;6.43;;;3.60;99.90;;;;;;5019665;28;20456;-89
2021/01/14 06:18:12;;;;;;;7.03;6.30;;;3.70;99.90;;;;;;5012936;28;20516;-89
2021/01/14 06:20:52;;;;;;;7.50;6.60;;;3.70;99.90;;;;;;5014441;28;20445;-89
2021/01/14 06:23:22;;;;;;;10.53;5.60;;;3.60;99.90;;;;;;5014965;28;21115;-88
2021/01/14 06:25:49;;;;;;;8.50;7.27;;;3.60;99.90;;;;;;5013544;28;20462;-89
2021/01/14 06:28:17;;;;;;;7.87;6.77;;;3.60;99.90;;;;;;5017786;28;20502;-90
2021/01/14 06:31:01;;;;;;;16.20;8.30;;;3.50;99.90;;;;;;5032900;28;20451;-87
2021/01/14 06:33:28;;;;;;;11.17;7.50;;;3.50;99.90;;;;;;5013447;28;20923;-88
2021/01/14 06:36:05;;;;;;;8.47;7.60;;;3.50;99.90;;;;;;5013328;28;20454;-89
2021/01/14 06:38:42;;;;;;;8.70;7.80;;;3.50;99.90;;;;;;5033372;28;21015;-89
2021/01/14 06:41:18;;;;;;;9.87;7.50;;;3.60;99.90;;;;;;5030576;28;20452;-90
2021/01/14 06:43:45;;;;;;;9.10;7.60;;;3.60;99.90;;;;;;5014309;28;20453;-90
2021/01/14 06:46:17;;;;;;;10.23;7.57;;;3.50;99.90;;;;;;5017490;28;20449;-88
2021/01/14 06:49:00;;;;;;;8.90;7.67;;;3.60;99.90;;;;;;5032637;28;20829;-87
2021/01/14 06:51:46;;;;;;;7.47;6.70;;;3.60;99.90;;;;;;5031371;28;20445;-87
2021/01/14 06:54:13;;;;;;;12.10;7.90;;;3.60;99.90;;;;;;5031964;28;20989;-87
2021/01/14 06:56:47;;;;;;;10.03;7.43;;;3.60;99.90;;;;;;5031868;28;20480;-84
2021/01/14 06:59:16;;;;;;;12.60;8.07;;;3.60;99.90;;;;;;5032479;28;20516;-84
2021/01/14 07:01:53;;;;;;;11.43;9.60;;;3.60;99.90;;;;;;5031770;28;20563;-84
2021/01/14 07:04:32;;;;;;;11.27;10.17;;;3.60;99.90;;;;;;5031412;28;20472;-84
2021/01/14 07:07:12;;;;;;;10.63;7.77;;;3.60;99.90;;;;;;5031111;28;20460;-84
2021/01/14 07:09:47;;;;;;;9.83;8.80;;;3.60;99.90;;;;;;5031052;28;20988;-84
2021/01/14 07:12:15;;;;;;;8.97;8.07;;;3.60;99.90;;;;;;5032032;28;20445;-83
2021/01/14 07:14:47;;;;;;;11.20;8.87;;;3.60;99.90;;;;;;5031871;28;20461;-84
2021/01/14 07:17:30;;;;;;;9.73;8.60;;;3.50;99.90;;;;;;5030957;28;20454;-84
2021/01/14 07:19:58;;;;;;;10.07;8.07;;;3.50;99.90;;;;;;5029942;28;20499;-84
2021/01/14 07:22:26;;;;;;;9.50;8.70;;;3.50;99.90;;;;;;5031518;28;20500;-85
2021/01/14 07:24:54;;;;;;;10.10;9.07;;;3.50;99.90;;;;;;5031534;28;20465;-84
2021/01/14 07:27:20;;;;;;;8.77;7.80;;;3.50;99.90;;;;;;5031318;28;20449;-83
2021/01/14 07:29:48;;;;;;;11.13;8.70;;;3.60;99.90;;;;;;5031038;28;20445;-82
2021/01/14 07:32:14;;;;;;;13.00;9.50;;;3.60;99.90;;;;;;5031107;28;20445;-80
2021/01/14 07:34:45;;;;;;;10.97;9.50;;;3.50;99.90;;;;;;5030538;28;20472;-79
2021/01/14 07:37:12;;;;;;;13.40;9.03;;;3.50;99.90;;;;;;5031024;28;20521;-83
2021/01/14 07:39:50;;;;;;;10.33;9.33;;;3.50;99.90;;;;;;5031869;28;20475;-80
2021/01/14 07:42:21;;;;;;;14.83;9.73;;;3.50;99.90;;;;;;5028934;28;20538;-85
2021/01/14 07:44:52;;;;;;;14.20;10.40;;;3.50;99.90;;;;;;5029456;28;21021;-84
2021/01/14 07:47:30;;;;;;;10.70;8.63;;;3.60;99.90;;;;;;5028287;28;20449;-88
2021/01/14 07:49:57;;;;;;;11.40;10.30;;;3.60;99.90;;;;;;5030576;28;20541;-84
2021/01/14 07:52:34;;;;;;;11.67;10.17;;;3.70;99.90;;;;;;5030196;28;20453;-84
2021/01/14 07:55:04;;;;;;;11.30;10.20;;;3.70;99.90;;;;;;5029253;28;20475;-85
2021/01/14 07:57:30;;;;;;;13.43;9.77;;;3.70;99.90;;;;;;5028829;28;21207;-85
2021/01/14 07:59:58;;;;;;;12.17;10.13;;;3.70;99.90;;;;;;5031374;28;20523;-85
2021/01/14 08:02:25;;;;;;;10.07;9.17;;;3.80;99.90;;;;;;5030465;28;20481;-84
2021/01/14 08:04:53;;;;;;;11.53;10.37;;;3.70;99.90;;;;;;5030808;28;20480;-85
2021/01/14 08:07:26;;;;;;;11.50;9.50;;;3.70;99.90;;;;;;5030584;28;20978;-84
2021/01/14 08:09:53;;;;;;;11.17;9.00;;;3.80;99.90;;;;;;5030320;28;20524;-83
2021/01/14 08:12:22;;;;;;;11.23;10.03;;;3.80;99.90;;;;;;5030274;28;20453;-84
2021/01/14 08:14:48;;;;;;;10.73;9.73;;;3.80;99.90;;;;;;5028922;28;21005;-84
2021/01/14 08:17:26;;;;;;;11.83;10.63;;;3.80;99.90;;;;;;5028869;28;20465;-84
2021/01/14 08:19:53;;;;;;;11.77;10.53;;;3.70;99.90;;;;;;5028881;28;20503;-84
2021/01/14 08:22:19;;;;;;;12.90;10.40;;;3.80;99.90;;;;;;5030519;28;20488;-85
2021/01/14 08:24:51;;;;;;;11.73;10.53;;;3.80;99.90;;;;;;5030048;28;20557;-85
2021/01/14 08:27:30;;;;;;;11.90;10.70;;;3.70;99.90;;;;;;5028619;28;20449;-84
2021/01/14 08:30:01;;;;;;;12.33;9.80;;;3.80;99.90;;;;;;5029210;28;20441;-85
2021/01/14 08:32:29;;;;;;;10.30;9.23;;;3.80;99.90;;;;;;5027261;28;20449;-85
2021/01/14 08:34:56;;;;;;;12.30;9.23;;;3.80;99.90;;;;;;5028677;28;20467;-85
2021/01/14 08:37:32;;;;;;;10.93;9.90;;;3.80;99.90;;;;;;5031289;28;20194;-85
2021/01/14 08:40:00;;;;;;;12.30;9.50;;;3.90;99.90;;;;;;5029734;28;20513;-85
2021/01/14 08:42:38;;;;;;;11.07;9.90;;;3.90;99.90;;;;;;5030194;28;20468;-84
2021/01/14 08:45:11;;;;;;;9.47;8.47;;;3.90;99.90;;;;;;5028770;28;20472;-84
2021/01/14 08:48:00;;;;;;;11.17;9.10;;;3.90;99.90;;;;;;5029886;28;20496;-84
2021/01/14 08:50:45;;;;;;;13.00;10.30;;;3.90;99.90;;;;;;5029830;28;20429;-84
2021/01/14 08:53:12;;;;;;;9.67;8.67;;;3.80;99.90;;;;;;5029273;28;20472;-85
2021/01/14 08:55:39;;;;;;;19.40;13.30;;;3.80;99.90;;;;;;5030532;28;20452;-86
2021/01/14 08:58:07;;;;;;;16.53;12.00;;;3.80;99.90;;;;;;5030587;28;20450;-84
2021/01/14 09:00:34;;;;;;;12.27;9.83;;;3.90;99.90;;;;;;5030721;28;20445;-84
2021/01/14 09:03:01;;;;;;;12.87;10.57;;;3.90;99.90;;;;;;5029895;28;20487;-84
2021/01/14 09:05:28;;;;;;;12.10;9.90;;;3.90;99.90;;;;;;5030329;28;20441;-86
2021/01/14 09:08:08;;;;;;;13.77;10.50;;;3.90;99.90;;;;;;5030284;28;20441;-86
2021/01/14 09:10:46;;;;;;;14.67;10.27;;;4.00;99.90;;;;;;5029175;28;20526;-84
2021/01/14 09:13:15;;;;;;;10.87;9.80;;;4.00;99.90;;;;;;5030303;28;20467;-84
2021/01/14 09:15:41;;;;;;;12.40;10.40;;;4.00;99.90;;;;;;5030135;28;20446;-84
2021/01/14 09:18:08;;;;;;;10.20;9.20;;;4.00;99.90;;;;;;5029728;28;21024;-85
2021/01/14 09:20:34;;;;;;;11.63;10.53;;;4.00;99.90;;;;;;5030632;28;20433;-84
2021/01/14 09:23:20;;;;;;;11.50;10.37;;;4.10;99.90;;;;;;5030241;28;20481;-84
2021/01/14 09:25:49;;;;;;;12.20;10.90;;;4.10;99.90;;;;;;5030174;28;20484;-84
2021/01/14 09:28:16;;;;;;;10.47;9.37;;;4.10;99.90;;;;;;5030451;28;20946;-84
2021/01/14 09:30:42;;;;;;;14.90;11.67;;;4.10;99.90;;;;;;5029898;28;20449;-84
2021/01/14 09:33:09;;;;;;;12.27;11.00;;;4.10;99.90;;;;;;5031084;28;20456;-84
2021/01/14 09:35:36;;;;;;;12.70;10.00;;;4.10;99.90;;;;;;5029253;28;20456;-85
2021/01/14 09:38:02;;;;;;;11.50;10.23;;;4.20;99.90;;;;;;5032595;28;20453;-85
2021/01/14 09:40:28;;;;;;;12.07;10.67;;;4.20;99.90;;;;;;5030422;28;20816;-86
2021/01/14 09:42:58;;;;;;;14.83;8.80;;;4.30;99.90;;;;;;5029758;28;20477;-86
2021/01/14 09:45:25;;;;;;;11.43;10.03;;;4.30;99.90;;;;;;5028014;28;20445;-86
2021/01/14 09:47:53;;;;;;;12.67;10.57;;;4.40;99.90;;;;;;5030064;28;20445;-86
2021/01/14 09:50:25;;;;;;;14.60;10.70;;;4.40;99.90;;;;;;5030417;28;20444;-86
2021/01/14 09:52:52;;;;;;;12.83;10.20;;;4.40;99.90;;;;;;5030081;28;20560;-86
2021/01/14 09:55:19;;;;;;;13.87;10.33;;;4.40;99.90;;;;;;5032120;28;20451;-86
2021/01/14 09:57:48;;;;;;;16.23;11.10;;;4.40;99.90;;;;;;5031731;28;20449;-85
2021/01/14 10:00:19;;;;;;;15.03;11.00;;;4.50;99.90;;;;;;5033932;28;20448;-86
2021/01/14 10:02:51;;;;;;;13.40;10.73;;;4.50;99.90;;;;;;5031661;28;20563;-85
2021/01/14 10:05:20;;;;;;;11.70;10.50;;;4.60;99.90;;;;;;5031537;28;20479;-85
2021/01/14 10:07:48;;;;;;;11.60;10.60;;;4.60;99.90;;;;;;5031522;28;20488;-85
2021/01/14 10:10:15;;;;;;;11.63;10.53;;;4.70;99.90;;;;;;5030931;28;20452;-86
2021/01/14 10:12:41;;;;;;;14.63;10.97;;;4.70;99.90;;;;;;5033527;28;21206;-85
2021/01/14 10:15:11;;;;;;;11.50;10.20;;;4.70;99.90;;;;;;5032894;28;21063;-86
2021/01/14 10:17:39;;;;;;;11.07;9.70;;;4.80;99.90;;;;;;5032105;28;20456;-85
2021/01/14 10:20:07;;;;;;;12.73;11.53;;;4.80;99.90;;;;;;5033435;28;20445;-86
2021/01/14 10:22:36;;;;;;;11.30;9.63;;;4.80;99.90;;;;;;5031339;28;20473;-86
2021/01/14 10:25:08;;;;;;;10.93;9.83;;;4.80;99.90;;;;;;5030277;28;20473;-86
2021/01/14 10:27:35;;;;;;;10.50;9.40;;;4.90;99.90;;;;;;5031525;28;20445;-86
2021/01/14 10:30:17;;;;;;;11.57;10.23;;;4.90;99.90;;;;;;5031147;28;20460;-86
2021/01/14 10:32:44;;;;;;;10.97;9.37;;;4.90;99.90;;;;;;5031976;28;20825;-86
2021/01/14 10:35:23;;;;;;;11.77;9.50;;;4.90;99.90;;;;;;5031898;28;20531;-86
2021/01/14 10:38:00;;;;;;;8.77;7.97;;;4.90;99.90;;;;;;5031283;28;20441;-86
2021/01/14 10:40:36;;;;;;;11.57;9.43;;;5.00;99.90;;;;;;5032294;28;20444;-85
2021/01/14 10:43:04;;;;;;;9.20;8.30;;;4.90;99.90;;;;;;5031309;28;20820;-85
2021/01/14 10:45:32;;;;;;;11.63;9.50;;;4.90;99.90;;;;;;5032426;28;20449;-86
2021/01/14 10:48:13;;;;;;;12.00;9.53;;;4.90;99.90;;;;;;5032320;28;20452;-85
2021/01/14 10:50:45;;;;;;;9.90;8.87;;;4.80;99.90;;;;;;5031619;28;20438;-86
2021/01/14 10:53:13;;;;;;;12.53;10.90;;;4.80;99.90;;;;;;5032526;28;20580;-86
2021/01/14 10:55:41;;;;;;;11.70;9.43;;;4.80;99.90;;;;;;5032308;28;20445;-85
2021/01/14 10:58:08;;;;;;;12.60;10.20;;;4.80;99.90;;;;;;5032615;28;20445;-85
2021/01/14 11:00:36;;;;;;;11.40;10.20;;;4.80;99.90;;;;;;5032370;28;20428;-85
2021/01/14 11:03:03;;;;;;;10.30;9.20;;;4.80;99.90;;;;;;5030128;28;20611;-85
2021/01/14 11:05:40;;;;;;;14.27;9.77;;;4.80;99.90;;;;;;5030423;28;20497;-85
2021/01/14 11:08:08;;;;;;;11.43;9.63;;;4.80;99.90;;;;;;5031055;28;20947;-85
2021/01/14 11:10:35;;;;;;;12.33;9.57;;;4.80;99.90;;;;;;5031404;28;20517;-85
2021/01/14 11:13:02;;;;;;;13.10;11.70;;;4.80;99.90;;;;;;5031510;28;20826;-85
2021/01/14 11:15:29;;;;;;;11.70;10.50;;;4.90;99.90;;;;;;5031925;28;20444;-86
2021/01/14 11:17:55;;;;;;;10.77;9.60;;;4.90;99.90;;;;;;5032069;28;20440;-86
2021/01/14 11:20:21;;;;;;;14.20;11.33;;;4.90;99.90;;;;;;5032052;28;20446;-85
2021/01/14 11:22:47;;;;;;;13.47;12.07;;;4.90;99.90;;;;;;5031156;28;20473;-85
2021/01/14 11:25:14;;;;;;;11.17;9.53;;;5.00;99.90;;;;;;5031639;28;20449;-86
2021/01/14 11:27:41;;;;;;;10.50;9.40;;;5.00;99.90;;;;;;5032065;28;21195;-85
2021/01/14 11:30:08;;;;;;;10.13;8.90;;;5.10;99.90;;;;;;5032060;28;20508;-86
2021/01/14 11:32:34;;;;;;;11.50;10.40;;;5.10;99.90;;;;;;5032021;28;20444;-86
2021/01/14 11:35:00;;;;;;;9.90;8.57;;;5.10;99.90;;;;;;5031397;28;20520;-86
2021/01/14 11:37:26;;;;;;;11.07;7.80;;;5.20;99.90;;;;;;5031830;28;20455;-85
2021/01/14 11:39:52;;;;;;;9.00;8.00;;;5.20;99.90;;;;;;5031070;28;20822;-84
2021/01/14 11:42:20;;;;;;;10.50;9.40;;;5.20;99.90;;;;;;5029487;28;20480;-86
2021/01/14 11:44:46;;;;;;;9.90;7.73;;;5.30;99.90;;;;;;5031382;28;21101;-86
2021/01/14 11:47:12;;;;;;;10.67;9.00;;;5.30;99.90;;;;;;5032361;28;20453;-85
2021/01/14 11:49:38;;;;;;;11.80;9.47;;;5.40;99.90;;;;;;5031845;28;20572;-85
2021/01/14 11:52:04;;;;;;;12.30;7.93;;;5.40;99.90;;;;;;5037398;28;20453;-85
2021/01/14 11:54:31;;;;;;;15.43;8.27;;;5.40;99.90;;;;;;5031725;28;20465;-85
2021/01/14 11:56:58;;;;;;;9.90;7.90;;;5.50;99.90;;;;;;5025793;28;20448;-86
2021/01/14 11:59:25;;;;;;;11.13;8.47;;;5.40;99.90;;;;;;5031493;28;20441;-87
2021/01/14 12:01:51;;;;;;;17.33;8.00;;;5.50;99.90;;;;;;5031200;28;20972;-86
2021/01/14 12:04:17;;;;;;;9.10;7.17;;;5.50;99.90;;;;;;5031393;28;20535;-85
2021/01/14 12:06:50;;;;;;;10.30;8.00;;;5.60;99.90;;;;;;5030234;28;20445;-85
2021/01/14 12:09:16;;;;;;;6.83;6.00;;;5.60;99.90;;;;;;5031818;28;20848;-85
2021/01/14 12:11:42;;;;;;;10.97;7.83;;;5.70;99.90;;;;;;5031119;28;20449;-86
2021/01/14 12:14:09;;;;;;;16.67;7.10;;;5.80;99.90;;;;;;5030824;28;20468;-86
2021/01/14 12:16:36;;;;;;;10.17;7.50;;;6.00;99.90;;;;;;5030653;28;20441;-86
2021/01/14 12:19:02;;;;;;;11.53;8.03;;;6.10;99.90;;;;;;5031104;28;20457;-86
2021/01/14 12:21:28;;;;;;;8.73;7.90;;;6.20;99.90;;;;;;5030475;28;20869;-85
2021/01/14 12:23:55;;;;;;;11.03;7.93;;;6.10;99.90;;;;;;5030633;28;20492;-85
2021/01/14 12:26:21;;;;;;;8.67;7.63;;;6.10;99.90;;;;;;5030721;28;20453;-86
2021/01/14 12:28:47;;;;;;;14.23;8.40;;;6.00;99.90;;;;;;5029793;28;20460;-86
2021/01/14 12:31:14;;;;;;;9.03;7.93;;;6.00;99.90;;;;;;5028497;28;20446;-86
2021/01/14 12:33:41;;;;;;;9.70;8.80;;;6.00;99.90;;;;;;5030928;28;20464;-86
2021/01/14 12:36:07;;;;;;;7.77;6.40;;;6.10;99.90;;;;;;5030238;28;20442;-86
2021/01/14 12:38:33;;;;;;;8.00;7.17;;;6.10;99.90;;;;;;5031051;28;20483;-85
2021/01/14 12:41:00;;;;;;;8.40;7.00;;;6.10;99.90;;;;;;5030651;28;20445;-85
2021/01/14 12:43:26;;;;;;;9.07;7.37;;;6.20;99.90;;;;;;5030733;28;21009;-86
2021/01/14 12:45:55;;;;;;;9.97;8.20;;;6.20;99.90;;;;;;5030484;28;20434;-86
2021/01/14 12:48:21;;;;;;;13.70;9.03;;;6.10;99.90;;;;;;5029546;28;20422;-86
2021/01/14 12:50:48;;;;;;;11.93;8.93;;;6.10;99.90;;;;;;5030447;28;20429;-85
2021/01/14 12:53:15;;;;;;;15.43;8.67;;;6.00;99.90;;;;;;5029323;28;20453;-85
2021/01/14 12:55:41;;;;;;;9.03;8.23;;;6.00;99.90;;;;;;5028641;28;20840;-86
2021/01/14 12:58:07;;;;;;;9.57;8.53;;;6.00;99.90;;;;;;5030602;28;20445;-86